ADDS METAR Data INFO
IDs: Format: Raw Decoded Include TAF

Data at: 0901 UTC 20 Oct 2017

PAMH 200856Z AUTO 00000KT 10SM CLR M13/M14 A2938 RMK AO2 SLP966 T11281139 410561128 55003 FZRANO
PAMH 200756Z 00000KT 10SM CLR M13/M14 A2937 RMK AO2 SLP294 PWINO FZRANO RVRNO
PAMH 200656Z AUTO 00000KT 10SM CLR M12/M13 A2938 RMK AO2 SLP968 T11171133 FZRANO
PAMH 200556Z 00000KT 10SM FEW027 M12/M13 A2939 RMK AO2 SLP294 11060 21120 54000 PWINO FZRANO RVRNO
PAMH 200456Z AUTO 00000KT 10SM CLR M11/M12 A2939 RMK AO2 SLP971 T11061122 FZRANO
PAMH 200356Z AUTO 22003KT 10SM SCT025 M09/M11 A2940 RMK AO2 SNE15 SLP975 P0000 T10891111 FZRANO
PAMH 200256Z AUTO 22006KT 9SM -SN BKN027 M07/M10 A2939 RMK AO2 SLP975 P0000 60000 T10721100 56001 FZRANO
PAMH 200156Z AUTO 19007KT 10SM -SN OVC025 M06/M10 A2940 RMK AO2 SNB54 SLP974 P0000 T10611100 FZRANO
PAMH 200056Z AUTO 20007KT 10SM OVC027 M07/M11 A2940 RMK AO2 SNE08 SLP975 P0000 T10671106 FZRANO
PAMH 192356Z 21006KT 9SM OVC027 M06/M11 A2940 RMK AO2 SLP295 11060 21090 410201100 57003 PWINO FZRANO RVRNO
PAMH 192256Z AUTO 21005KT 9SM -SN OVC023 M06/M11 A2941 RMK AO2 SLP978 P0000 T10611111 FZRANO
PAMH 192156Z 00000KT 9SM OVC019 M06/M11 A2941 RMK AO2 SLP295 PWINO FZRANO RVRNO
PAMH 192117Z AUTO VRB03KT 9SM -SN BKN017 OVC070 M07/M11 A2941 RMK AO2 SNB08 P0000 FZRANO
PAMH 192056Z AUTO 00000KT 10SM FEW015 OVC070 M07/M11 A2941 RMK AO2 SNE14B32E42 SLP978 P0000 60000 T10671106 52005 FZRANO
PAMH 191956Z 00000KT 9SM OVC070 M08/M11 A2940 RMK AO2 SLP295 PWINO FZRANO RVRNO
PAMH 191856Z AUTO VRB03KT 9SM -SN FEW018 OVC070 M08/M11 A2940 RMK AO2 SNB28 SLP975 P0000 T10831111 FZRANO
PAMH 191843Z AUTO 28003KT 9SM -SN BKN018 BKN042 OVC070 M08/M11 A2940 RMK AO2 SNB28 P0000 FZRANO
PAMH 191756Z 22003KT 9SM OVC038 M09/M11 A2940 RMK AO2 SLP295 11090 21100 52007 PWINO FZRANO RVRNO
PAMH 191656Z AUTO 00000KT 9SM -SN BKN030 OVC050 M09/M11 A2939 RMK AO2 SLP972 P0000 T10891111 FZRANO
PAMH 191626Z AUTO 00000KT 9SM -SN SCT021 OVC050 M09/M12 A2939 RMK AO2 P0000 FZRANO
PAMH 191556Z 26003KT 9SM OVC019 M09/M12 A2939 RMK AO2 SLP294 PWINO FZRANO RVRNO
PAMH 191506Z AUTO 00000KT 10SM BKN017 OVC049 M10/M12 A2938 RMK AO2 FZRANO
PAMH 191456Z AUTO 00000KT 10SM SCT017 OVC049 M10/M13 A2938 RMK AO2 SLP969 T11001128 55000 FZRANO
PAMH 191439Z AUTO VRB03KT 10SM BKN017 OVC049 M10/M13 A2938 RMK AO2 FZRANO
PAMH 191356Z AUTO VRB03KT 10SM BKN045 M10/M13 A2938 RMK AO2 SLP967 T11001128 FZRANO
PAMH 191256Z AUTO VRB03KT 10SM CLR M09/M12 A2937 RMK AO2 SLP968 T10941122 FZRANO
PAMH 191156Z AUTO 00000KT 10SM OVC050 M09/M11 A2938 RMK AO2 SLP971 60000 T10891111 11044 21089 51002 FZRANO
PAMH 191056Z AUTO 25003KT 10SM CLR M09/M10 A2938 RMK AO2 SLP970 T10891100 FZRANO
PAMH 190956Z AUTO 00000KT 10SM OVC060 M07/M11 A2938 RMK AO2 SLP969 T10721106 FZRANO
PAMH 190856Z AUTO 00000KT 10SM FEW035 OVC065 M07/M09 A2938 RMK AO2 SLP968 60000 T10671094 410111067 51004 FZRANO
PAMH 190756Z AUTO 00000KT 10SM FEW030 OVC070 M05/M09 A2938 RMK AO2 SNB05E43 SLP967 P0000 T10501089 FZRANO
PAMH 190656Z AUTO 00000KT 10SM OVC070 M05/M08 A2937 RMK AO2 SLP965 T10501083 FZRANO
PAMH 190556Z AUTO 00000KT 10SM OVC075 M05/M08 A2936 RMK AO2 SLP963 T10501083 11017 21061 50002 FZRANO
PAMH 190456Z AUTO 00000KT 10SM OVC080 M06/M09 A2937 RMK AO2 SLP965 T10561089 FZRANO
PAMH 190356Z AUTO 00000KT 10SM SCT080 M06/M09 A2936 RMK AO2 SLP964 T10611089 FZRANO
PAMH 190256Z AUTO 00000KT 10SM FEW027 M05/M09 A2936 RMK AO2 SLP962 T10501089 51005 FZRANO
PAMH 190253Z AUTO 00000KT 10SM SCT027 M05/M09 A2936 RMK AO2 FZRANO
PAMH 190156Z AUTO 00000KT 10SM OVC027 M02/M08 A2935 RMK AO2 SLP956 T10221078 FZRANO
PAMH 190056Z AUTO VRB03KT 10SM BKN027 M02/M08 A2934 RMK AO2 SLP958 T10221083 FZRANO
PAMH 182356Z AUTO 00000KT 10SM OVC029 M03/M08 A2935 RMK AO2 SLP959 60000 T10281078 11011 21033 55002 FZRANO
PAMH 182256Z AUTO 00000KT 10SM OVC020 M01/M07 A2934 RMK AO2 SNB00E13 SLP958 P0000 T10111072 FZRANO
PAMH 182156Z AUTO VRB04KT 10SM OVC022 M02/M07 A2934 RMK AO2 SLP956 T10221072 FZRANO